sensor_id;sensor_type;location;lat;lon;timestamp;P1;durP1;ratioP1;P2;durP2;ratioP2
60098;SDS011;62818;49.394;8.686;2022-09-01T00:00:49;2.92;;;2.63;;
60098;SDS011;62818;49.394;8.686;2022-09-01T00:01:54;8.55;;;2.78;;
60098;SDS011;62818;49.394;8.686;2022-09-01T00:02:57;5.88;;;2.70;;
60098;SDS011;62818;49.394;8.686;2022-09-01T00:04:00;4.07;;;2.83;;
60098;SDS011;62818;49.394;8.686;2022-09-01T00:05:03;4.70;;;2.97;;
60098;SDS011;62818;49.394;8.686;2022-09-01T00:06:06;5.60;;;3.15;;
60098;SDS011;62818;49.394;8.686;2022-09-01T00:07:11;5.15;;;2.67;;
60098;SDS011;62818;49.394;8.686;2022-09-01T00:08:13;4.97;;;3.15;;
60098;SDS011;62818;49.394;8.686;2022-09-01T00:09:15;7.60;;;2.67;;
60098;SDS011;62818;49.394;8.686;2022-09-01T00:10:21;4.03;;;2.85;;
60098;SDS011;62818;49.394;8.686;2022-09-01T00:11:25;5.25;;;3.05;;
60098;SDS011;62818;49.394;8.686;2022-09-01T00:12:29;5.15;;;2.88;;
60098;SDS011;62818;49.394;8.686;2022-09-01T00:13:30;6.97;;;3.20;;
60098;SDS011;62818;49.394;8.686;2022-09-01T00:14:38;8.38;;;3.00;;
60098;SDS011;62818;49.394;8.686;2022-09-01T00:15:40;4.05;;;3.22;;
60098;SDS011;62818;49.394;8.686;2022-09-01T00:16:43;6.30;;;3.35;;
60098;SDS011;62818;49.394;8.686;2022-09-01T00:17:43;4.77;;;3.00;;
60098;SDS011;62818;49.394;8.686;2022-09-01T00:18:44;7.97;;;3.77;;
60098;SDS011;62818;49.394;8.686;2022-09-01T00:19:50;3.83;;;2.97;;
60098;SDS011;62818;49.394;8.686;2022-09-01T00:20:51;7.32;;;3.08;;
60098;SDS011;62818;49.394;8.686;2022-09-01T00:21:52;9.53;;;3.50;;
60098;SDS011;62818;49.394;8.686;2022-09-01T00:22:57;3.80;;;2.97;;
60098;SDS011;62818;49.394;8.686;2022-09-01T00:25:01;4.53;;;3.47;;
60098;SDS011;62818;49.394;8.686;2022-09-01T00:27:03;3.95;;;3.17;;
60098;SDS011;62818;49.394;8.686;2022-09-01T00:28:04;7.32;;;3.53;;
60098;SDS011;62818;49.394;8.686;2022-09-01T00:29:05;4.27;;;3.07;;
60098;SDS011;62818;49.394;8.686;2022-09-01T00:30:06;5.55;;;3.95;;
60098;SDS011;62818;49.394;8.686;2022-09-01T00:32:10;3.95;;;2.70;;
60098;SDS011;62818;49.394;8.686;2022-09-01T00:33:13;4.15;;;3.08;;
60098;SDS011;62818;49.394;8.686;2022-09-01T00:34:14;6.70;;;3.30;;
60098;SDS011;62818;49.394;8.686;2022-09-01T00:35:18;7.22;;;3.40;;
60098;SDS011;62818;49.394;8.686;2022-09-01T00:36:19;4.45;;;3.50;;
60098;SDS011;62818;49.394;8.686;2022-09-01T00:37:21;7.13;;;3.90;;
60098;SDS011;62818;49.394;8.686;2022-09-01T00:38:26;8.05;;;4.15;;
60098;SDS011;62818;49.394;8.686;2022-09-01T00:39:27;5.63;;;3.23;;
60098;SDS011;62818;49.394;8.686;2022-09-01T00:40:30;4.53;;;3.30;;
60098;SDS011;62818;49.394;8.686;2022-09-01T00:41:34;5.38;;;3.50;;
60098;SDS011;62818;49.394;8.686;2022-09-01T00:42:41;5.25;;;4.03;;
60098;SDS011;62818;49.394;8.686;2022-09-01T00:43:47;5.05;;;3.75;;
60098;SDS011;62818;49.394;8.686;2022-09-01T00:44:54;5.88;;;4.07;;
60098;SDS011;62818;49.394;8.686;2022-09-01T00:45:54;6.30;;;4.27;;
60098;SDS011;62818;49.394;8.686;2022-09-01T00:46:56;5.40;;;4.28;;
60098;SDS011;62818;49.394;8.686;2022-09-01T00:48:02;4.88;;;4.30;;
60098;SDS011;62818;49.394;8.686;2022-09-01T00:49:07;7.40;;;4.22;;
60098;SDS011;62818;49.394;8.686;2022-09-01T00:50:14;4.60;;;3.80;;
60098;SDS011;62818;49.394;8.686;2022-09-01T00:51:19;8.13;;;4.22;;
60098;SDS011;62818;49.394;8.686;2022-09-01T00:52:22;5.28;;;3.53;;
60098;SDS011;62818;49.394;8.686;2022-09-01T00:53:27;6.53;;;4.43;;
60098;SDS011;62818;49.394;8.686;2022-09-01T00:54:35;6.82;;;4.00;;
60098;SDS011;62818;49.394;8.686;2022-09-01T00:55:43;5.45;;;3.95;;
60098;SDS011;62818;49.394;8.686;2022-09-01T00:56:44;7.10;;;4.70;;
60098;SDS011;62818;49.394;8.686;2022-09-01T00:57:49;6.28;;;4.30;;
60098;SDS011;62818;49.394;8.686;2022-09-01T00:58:52;5.88;;;3.95;;
60098;SDS011;62818;49.394;8.686;2022-09-01T01:01:32;6.75;;;4.45;;
60098;SDS011;62818;49.394;8.686;2022-09-01T01:02:37;5.82;;;4.43;;
60098;SDS011;62818;49.394;8.686;2022-09-01T01:03:43;4.07;;;3.67;;
60098;SDS011;62818;49.394;8.686;2022-09-01T01:04:49;7.78;;;4.15;;
60098;SDS011;62818;49.394;8.686;2022-09-01T01:05:52;7.25;;;3.95;;
60098;SDS011;62818;49.394;8.686;2022-09-01T01:06:57;12.70;;;4.53;;
60098;SDS011;62818;49.394;8.686;2022-09-01T01:08:05;8.20;;;4.40;;
60098;SDS011;62818;49.394;8.686;2022-09-01T01:09:10;6.55;;;4.82;;
60098;SDS011;62818;49.394;8.686;2022-09-01T01:10:11;4.97;;;4.30;;
60098;SDS011;62818;49.394;8.686;2022-09-01T01:11:17;10.25;;;4.13;;
60098;SDS011;62818;49.394;8.686;2022-09-01T01:12:23;7.07;;;4.15;;
60098;SDS011;62818;49.394;8.686;2022-09-01T01:13:29;8.00;;;4.25;;
60098;SDS011;62818;49.394;8.686;2022-09-01T01:14:48;6.40;;;3.83;;
60098;SDS011;62818;49.394;8.686;2022-09-01T01:15:49;4.93;;;4.22;;
60098;SDS011;62818;49.394;8.686;2022-09-01T01:16:52;10.97;;;4.03;;
60098;SDS011;62818;49.394;8.686;2022-09-01T01:17:55;6.28;;;4.43;;
60098;SDS011;62818;49.394;8.686;2022-09-01T01:18:58;6.80;;;4.47;;
60098;SDS011;62818;49.394;8.686;2022-09-01T01:20:02;5.30;;;3.92;;
60098;SDS011;62818;49.394;8.686;2022-09-01T01:21:38;6.10;;;4.30;;
60098;SDS011;62818;49.394;8.686;2022-09-01T01:26:40;5.32;;;4.25;;
60098;SDS011;62818;49.394;8.686;2022-09-01T01:27:43;7.63;;;4.20;;
60098;SDS011;62818;49.394;8.686;2022-09-01T01:28:47;9.25;;;3.75;;
60098;SDS011;62818;49.394;8.686;2022-09-01T01:29:50;6.20;;;3.80;;
60098;SDS011;62818;49.394;8.686;2022-09-01T01:30:53;6.22;;;4.35;;
60098;SDS011;62818;49.394;8.686;2022-09-01T01:32:07;4.80;;;4.30;;
60098;SDS011;62818;49.394;8.686;2022-09-01T01:33:13;7.82;;;5.20;;
60098;SDS011;62818;49.394;8.686;2022-09-01T01:34:14;6.45;;;4.57;;
60098;SDS011;62818;49.394;8.686;2022-09-01T01:35:16;7.47;;;4.30;;
60098;SDS011;62818;49.394;8.686;2022-09-01T01:37:33;5.07;;;4.57;;
60098;SDS011;62818;49.394;8.686;2022-09-01T01:38:34;8.13;;;4.10;;
60098;SDS011;62818;49.394;8.686;2022-09-01T01:39:41;4.88;;;4.07;;
60098;SDS011;62818;49.394;8.686;2022-09-01T01:40:46;5.50;;;4.18;;
60098;SDS011;62818;49.394;8.686;2022-09-01T01:41:47;6.10;;;4.80;;
60098;SDS011;62818;49.394;8.686;2022-09-01T01:42:49;5.43;;;4.30;;
60098;SDS011;62818;49.394;8.686;2022-09-01T01:43:53;5.70;;;3.92;;
60098;SDS011;62818;49.394;8.686;2022-09-01T01:44:53;5.60;;;4.23;;
60098;SDS011;62818;49.394;8.686;2022-09-01T01:45:59;5.45;;;4.10;;
60098;SDS011;62818;49.394;8.686;2022-09-01T01:47:01;6.05;;;4.05;;
60098;SDS011;62818;49.394;8.686;2022-09-01T01:48:08;4.72;;;4.20;;
60098;SDS011;62818;49.394;8.686;2022-09-01T01:49:12;5.07;;;4.47;;
60098;SDS011;62818;49.394;8.686;2022-09-01T01:50:21;5.63;;;4.40;;
60098;SDS011;62818;49.394;8.686;2022-09-01T01:51:32;9.50;;;4.60;;
60098;SDS011;62818;49.394;8.686;2022-09-01T01:52:35;8.15;;;4.70;;
60098;SDS011;62818;49.394;8.686;2022-09-01T01:53:36;10.67;;;4.33;;
60098;SDS011;62818;49.394;8.686;2022-09-01T01:54:38;9.70;;;4.32;;
60098;SDS011;62818;49.394;8.686;2022-09-01T01:55:40;11.18;;;4.22;;
60098;SDS011;62818;49.394;8.686;2022-09-01T01:56:42;6.13;;;4.35;;
60098;SDS011;62818;49.394;8.686;2022-09-01T01:57:45;4.97;;;4.28;;
60098;SDS011;62818;49.394;8.686;2022-09-01T01:58:53;5.88;;;4.50;;
60098;SDS011;62818;49.394;8.686;2022-09-01T01:59:56;5.65;;;3.92;;
60098;SDS011;62818;49.394;8.686;2022-09-01T02:00:57;5.13;;;4.60;;
60098;SDS011;62818;49.394;8.686;2022-09-01T02:02:02;6.65;;;4.00;;
60098;SDS011;62818;49.394;8.686;2022-09-01T02:03:09;5.03;;;4.05;;
60098;SDS011;62818;49.394;8.686;2022-09-01T02:04:11;5.50;;;4.53;;
60098;SDS011;62818;49.394;8.686;2022-09-01T02:05:21;5.88;;;3.80;;
60098;SDS011;62818;49.394;8.686;2022-09-01T02:06:33;6.50;;;3.92;;
60098;SDS011;62818;49.394;8.686;2022-09-01T02:07:34;6.22;;;3.90;;
60098;SDS011;62818;49.394;8.686;2022-09-01T02:08:42;6.25;;;3.45;;
60098;SDS011;62818;49.394;8.686;2022-09-01T02:09:43;9.20;;;4.03;;
60098;SDS011;62818;49.394;8.686;2022-09-01T02:10:48;6.75;;;3.92;;
60098;SDS011;62818;49.394;8.686;2022-09-01T02:11:51;9.20;;;3.85;;
60098;SDS011;62818;49.394;8.686;2022-09-01T02:13:01;7.32;;;3.67;;
60098;SDS011;62818;49.394;8.686;2022-09-01T02:14:08;5.03;;;3.80;;
60098;SDS011;62818;49.394;8.686;2022-09-01T02:15:09;5.60;;;4.10;;
60098;SDS011;62818;49.394;8.686;2022-09-01T02:16:12;5.22;;;3.88;;
60098;SDS011;62818;49.394;8.686;2022-09-01T02:17:15;6.85;;;4.00;;
60098;SDS011;62818;49.394;8.686;2022-09-01T02:18:18;4.60;;;3.33;;
60098;SDS011;62818;49.394;8.686;2022-09-01T02:19:26;4.40;;;3.53;;
60098;SDS011;62818;49.394;8.686;2022-09-01T02:20:32;7.07;;;3.63;;
60098;SDS011;62818;49.394;8.686;2022-09-01T02:21:35;5.88;;;3.63;;
60098;SDS011;62818;49.394;8.686;2022-09-01T02:22:43;7.50;;;3.75;;
60098;SDS011;62818;49.394;8.686;2022-09-01T02:23:51;5.03;;;3.63;;
60098;SDS011;62818;49.394;8.686;2022-09-01T02:25:04;4.90;;;3.58;;
60098;SDS011;62818;49.394;8.686;2022-09-01T02:26:06;4.47;;;3.20;;
60098;SDS011;62818;49.394;8.686;2022-09-01T02:27:11;5.80;;;3.35;;
60098;SDS011;62818;49.394;8.686;2022-09-01T02:28:18;5.47;;;3.45;;
60098;SDS011;62818;49.394;8.686;2022-09-01T02:29:24;8.55;;;3.50;;
60098;SDS011;62818;49.394;8.686;2022-09-01T02:30:29;5.55;;;3.90;;
60098;SDS011;62818;49.394;8.686;2022-09-01T02:31:33;6.90;;;3.85;;
60098;SDS011;62818;49.394;8.686;2022-09-01T02:32:38;5.30;;;3.60;;
60098;SDS011;62818;49.394;8.686;2022-09-01T02:33:40;5.60;;;3.33;;
60098;SDS011;62818;49.394;8.686;2022-09-01T02:34:44;4.20;;;3.22;;
60098;SDS011;62818;49.394;8.686;2022-09-01T02:35:58;5.55;;;3.58;;
60098;SDS011;62818;49.394;8.686;2022-09-01T02:37:04;5.90;;;3.42;;
60098;SDS011;62818;49.394;8.686;2022-09-01T02:38:04;4.10;;;3.03;;
60098;SDS011;62818;49.394;8.686;2022-09-01T02:39:05;3.80;;;2.88;;
60098;SDS011;62818;49.394;8.686;2022-09-01T02:40:07;6.73;;;3.40;;
60098;SDS011;62818;49.394;8.686;2022-09-01T02:41:14;4.50;;;3.13;;
60098;SDS011;62818;49.394;8.686;2022-09-01T02:42:19;3.35;;;2.88;;
60098;SDS011;62818;49.394;8.686;2022-09-01T02:43:26;8.90;;;3.53;;
60098;SDS011;62818;49.394;8.686;2022-09-01T02:44:35;5.05;;;2.88;;
60098;SDS011;62818;49.394;8.686;2022-09-01T02:45:39;4.25;;;3.25;;
60098;SDS011;62818;49.394;8.686;2022-09-01T02:46:43;4.32;;;3.13;;
60098;SDS011;62818;49.394;8.686;2022-09-01T02:47:45;4.57;;;3.10;;
60098;SDS011;62818;49.394;8.686;2022-09-01T02:48:47;5.88;;;3.40;;
60098;SDS011;62818;49.394;8.686;2022-09-01T02:49:50;4.75;;;3.42;;
60098;SDS011;62818;49.394;8.686;2022-09-01T02:50:53;5.20;;;3.33;;
60098;SDS011;62818;49.394;8.686;2022-09-01T02:52:00;5.22;;;3.03;;
60098;SDS011;62818;49.394;8.686;2022-09-01T02:53:03;4.47;;;3.17;;
60098;SDS011;62818;49.394;8.686;2022-09-01T02:54:09;3.85;;;3.45;;
60098;SDS011;62818;49.394;8.686;2022-09-01T02:55:18;3.83;;;2.97;;
60098;SDS011;62818;49.394;8.686;2022-09-01T02:56:22;4.40;;;3.40;;
60098;SDS011;62818;49.394;8.686;2022-09-01T02:57:28;3.95;;;2.97;;
60098;SDS011;62818;49.394;8.686;2022-09-01T02:58:33;5.60;;;3.25;;
60098;SDS011;62818;49.394;8.686;2022-09-01T02:59:44;5.07;;;3.10;;
60098;SDS011;62818;49.394;8.686;2022-09-01T03:00:47;3.53;;;3.03;;
60098;SDS011;62818;49.394;8.686;2022-09-01T03:01:54;4.95;;;3.15;;
60098;SDS011;62818;49.394;8.686;2022-09-01T03:03:00;3.80;;;2.80;;
60098;SDS011;62818;49.394;8.686;2022-09-01T03:04:04;5.30;;;2.92;;
60098;SDS011;62818;49.394;8.686;2022-09-01T03:05:10;4.45;;;3.05;;
60098;SDS011;62818;49.394;8.686;2022-09-01T03:06:12;4.43;;;3.03;;
60098;SDS011;62818;49.394;8.686;2022-09-01T03:07:13;4.03;;;3.30;;
60098;SDS011;62818;49.394;8.686;2022-09-01T03:08:17;4.40;;;2.70;;
60098;SDS011;62818;49.394;8.686;2022-09-01T03:09:17;5.10;;;3.20;;
60098;SDS011;62818;49.394;8.686;2022-09-01T03:10:22;3.88;;;2.95;;
60098;SDS011;62818;49.394;8.686;2022-09-01T03:11:32;5.78;;;2.90;;
60098;SDS011;62818;49.394;8.686;2022-09-01T03:12:35;4.38;;;2.70;;
60098;SDS011;62818;49.394;8.686;2022-09-01T03:13:36;3.83;;;2.90;;
60098;SDS011;62818;49.394;8.686;2022-09-01T03:14:39;3.08;;;2.75;;
60098;SDS011;62818;49.394;8.686;2022-09-01T03:15:43;5.30;;;3.20;;
60098;SDS011;62818;49.394;8.686;2022-09-01T03:16:44;4.40;;;3.00;;
60098;SDS011;62818;49.394;8.686;2022-09-01T03:17:47;3.67;;;2.58;;
60098;SDS011;62818;49.394;8.686;2022-09-01T03:18:51;3.83;;;2.65;;
60098;SDS011;62818;49.394;8.686;2022-09-01T03:19:54;4.53;;;2.65;;
60098;SDS011;62818;49.394;8.686;2022-09-01T03:20:57;6.93;;;3.00;;
60098;SDS011;62818;49.394;8.686;2022-09-01T03:22:01;5.45;;;2.70;;
60098;SDS011;62818;49.394;8.686;2022-09-01T03:23:06;7.90;;;3.15;;
60098;SDS011;62818;49.394;8.686;2022-09-01T03:24:15;4.57;;;2.72;;
60098;SDS011;62818;49.394;8.686;2022-09-01T03:25:18;3.90;;;2.70;;
60098;SDS011;62818;49.394;8.686;2022-09-01T03:26:26;5.00;;;3.15;;
60098;SDS011;62818;49.394;8.686;2022-09-01T03:27:26;3.80;;;3.10;;
60098;SDS011;62818;49.394;8.686;2022-09-01T03:28:27;4.03;;;2.90;;
60098;SDS011;62818;49.394;8.686;2022-09-01T03:29:33;5.28;;;2.88;;
60098;SDS011;62818;49.394;8.686;2022-09-01T03:30:37;5.50;;;3.20;;
60098;SDS011;62818;49.394;8.686;2022-09-01T03:31:44;7.50;;;3.10;;
60098;SDS011;62818;49.394;8.686;2022-09-01T03:32:45;7.15;;;3.03;;
60098;SDS011;62818;49.394;8.686;2022-09-01T03:33:47;3.67;;;2.70;;
60098;SDS011;62818;49.394;8.686;2022-09-01T03:34:50;3.70;;;3.00;;
60098;SDS011;62818;49.394;8.686;2022-09-01T03:35:54;3.75;;;3.15;;
60098;SDS011;62818;49.394;8.686;2022-09-01T03:36:58;6.22;;;3.08;;
60098;SDS011;62818;49.394;8.686;2022-09-01T03:38:03;4.57;;;3.17;;
60098;SDS011;62818;49.394;8.686;2022-09-01T03:39:08;4.43;;;2.75;;
60098;SDS011;62818;49.394;8.686;2022-09-01T03:40:10;5.57;;;2.85;;
60098;SDS011;62818;49.394;8.686;2022-09-01T03:41:18;6.97;;;3.53;;
60098;SDS011;62818;49.394;8.686;2022-09-01T03:42:26;4.50;;;2.90;;
60098;SDS011;62818;49.394;8.686;2022-09-01T03:43:30;7.32;;;3.15;;
60098;SDS011;62818;49.394;8.686;2022-09-01T03:44:33;4.35;;;3.00;;
60098;SDS011;62818;49.394;8.686;2022-09-01T03:45:35;4.60;;;2.97;;
60098;SDS011;62818;49.394;8.686;2022-09-01T03:46:39;3.63;;;2.65;;
60098;SDS011;62818;49.394;8.686;2022-09-01T03:47:42;4.80;;;3.08;;
60098;SDS011;62818;49.394;8.686;2022-09-01T03:48:45;4.63;;;3.30;;
60098;SDS011;62818;49.394;8.686;2022-09-01T03:49:54;4.20;;;3.03;;
60098;SDS011;62818;49.394;8.686;2022-09-01T03:50:56;3.67;;;2.85;;
60098;SDS011;62818;49.394;8.686;2022-09-01T03:52:01;4.55;;;3.03;;
60098;SDS011;62818;49.394;8.686;2022-09-01T03:53:02;5.57;;;3.00;;
60098;SDS011;62818;49.394;8.686;2022-09-01T03:54:06;4.60;;;2.97;;
60098;SDS011;62818;49.394;8.686;2022-09-01T03:55:09;5.50;;;2.80;;
60098;SDS011;62818;49.394;8.686;2022-09-01T03:56:09;3.60;;;2.92;;
60098;SDS011;62818;49.394;8.686;2022-09-01T03:57:14;5.93;;;3.20;;
60098;SDS011;62818;49.394;8.686;2022-09-01T03:58:17;4.00;;;3.03;;
60098;SDS011;62818;49.394;8.686;2022-09-01T03:59:20;3.47;;;2.83;;
60098;SDS011;62818;49.394;8.686;2022-09-01T04:00:27;4.53;;;2.83;;
60098;SDS011;62818;49.394;8.686;2022-09-01T04:01:31;6.85;;;3.45;;
60098;SDS011;62818;49.394;8.686;2022-09-01T04:02:36;4.07;;;3.00;;
60098;SDS011;62818;49.394;8.686;2022-09-01T04:03:37;4.13;;;2.63;;
60098;SDS011;62818;49.394;8.686;2022-09-01T04:04:40;5.57;;;2.97;;
60098;SDS011;62818;49.394;8.686;2022-09-01T04:05:43;4.27;;;3.20;;
60098;SDS011;62818;49.394;8.686;2022-09-01T04:06:47;5.28;;;3.10;;
60098;SDS011;62818;49.394;8.686;2022-09-01T04:07:48;4.50;;;3.10;;
60098;SDS011;62818;49.394;8.686;2022-09-01T04:08:49;6.97;;;3.45;;
60098;SDS011;62818;49.394;8.686;2022-09-01T04:10:01;3.95;;;3.13;;
60098;SDS011;62818;49.394;8.686;2022-09-01T04:11:03;7.00;;;3.38;;
60098;SDS011;62818;49.394;8.686;2022-09-01T04:12:16;3.30;;;2.92;;
60098;SDS011;62818;49.394;8.686;2022-09-01T04:13:25;4.03;;;3.03;;
60098;SDS011;62818;49.394;8.686;2022-09-01T04:14:30;3.92;;;2.85;;
60098;SDS011;62818;49.394;8.686;2022-09-01T04:15:31;4.97;;;3.20;;
60098;SDS011;62818;49.394;8.686;2022-09-01T04:16:38;4.75;;;3.17;;
60098;SDS011;62818;49.394;8.686;2022-09-01T04:18:01;4.30;;;3.40;;
60098;SDS011;62818;49.394;8.686;2022-09-01T04:19:09;4.00;;;3.15;;
60098;SDS011;62818;49.394;8.686;2022-09-01T04:20:24;4.90;;;3.22;;
60098;SDS011;62818;49.394;8.686;2022-09-01T04:21:28;3.80;;;3.35;;
60098;SDS011;62818;49.394;8.686;2022-09-01T04:22:29;4.03;;;3.15;;
60098;SDS011;62818;49.394;8.686;2022-09-01T04:23:36;3.83;;;3.50;;
60098;SDS011;62818;49.394;8.686;2022-09-01T04:24:37;3.28;;;2.97;;
60098;SDS011;62818;49.394;8.686;2022-09-01T04:25:41;6.65;;;3.30;;
60098;SDS011;62818;49.394;8.686;2022-09-01T04:26:46;4.03;;;3.25;;
60098;SDS011;62818;49.394;8.686;2022-09-01T04:27:49;5.45;;;3.63;;
60098;SDS011;62818;49.394;8.686;2022-09-01T04:28:54;5.28;;;3.30;;
60098;SDS011;62818;49.394;8.686;2022-09-01T04:29:57;3.90;;;3.35;;
60098;SDS011;62818;49.394;8.686;2022-09-01T04:31:01;3.88;;;3.28;;
60098;SDS011;62818;49.394;8.686;2022-09-01T04:32:07;4.38;;;3.40;;
60098;SDS011;62818;49.394;8.686;2022-09-01T04:33:11;3.83;;;3.13;;
60098;SDS011;62818;49.394;8.686;2022-09-01T04:34:15;4.22;;;3.28;;
60098;SDS011;62818;49.394;8.686;2022-09-01T04:35:18;7.38;;;3.30;;
60098;SDS011;62818;49.394;8.686;2022-09-01T04:36:31;6.90;;;4.03;;
60098;SDS011;62818;49.394;8.686;2022-09-01T04:38:36;6.85;;;3.47;;
60098;SDS011;62818;49.394;8.686;2022-09-01T04:39:39;4.10;;;3.40;;
60098;SDS011;62818;49.394;8.686;2022-09-01T04:40:47;6.63;;;3.50;;
60098;SDS011;62818;49.394;8.686;2022-09-01T04:41:48;4.65;;;3.30;;
60098;SDS011;62818;49.394;8.686;2022-09-01T04:42:51;3.83;;;3.42;;
60098;SDS011;62818;49.394;8.686;2022-09-01T04:43:52;6.68;;;3.63;;
60098;SDS011;62818;49.394;8.686;2022-09-01T04:44:57;3.80;;;3.35;;
60098;SDS011;62818;49.394;8.686;2022-09-01T04:46:00;7.10;;;3.38;;
60098;SDS011;62818;49.394;8.686;2022-09-01T04:47:02;3.00;;;2.70;;
60098;SDS011;62818;49.394;8.686;2022-09-01T04:48:12;5.18;;;3.63;;
60098;SDS011;62818;49.394;8.686;2022-09-01T04:49:16;5.40;;;3.35;;
60098;SDS011;62818;49.394;8.686;2022-09-01T04:50:25;8.20;;;3.67;;
60098;SDS011;62818;49.394;8.686;2022-09-01T04:51:30;5.05;;;3.90;;
60098;SDS011;62818;49.394;8.686;2022-09-01T04:53:35;4.22;;;3.20;;
60098;SDS011;62818;49.394;8.686;2022-09-01T04:54:39;4.85;;;3.20;;
60098;SDS011;62818;49.394;8.686;2022-09-01T04:55:40;5.72;;;3.45;;
60098;SDS011;62818;49.394;8.686;2022-09-01T04:56:44;6.63;;;3.67;;
60098;SDS011;62818;49.394;8.686;2022-09-01T04:57:51;5.13;;;3.72;;
60098;SDS011;62818;49.394;8.686;2022-09-01T04:58:52;5.35;;;3.63;;
60098;SDS011;62818;49.394;8.686;2022-09-01T04:59:54;6.50;;;3.60;;
60098;SDS011;62818;49.394;8.686;2022-09-01T05:00:55;4.35;;;3.40;;
60098;SDS011;62818;49.394;8.686;2022-09-01T05:01:59;6.30;;;3.70;;
60098;SDS011;62818;49.394;8.686;2022-09-01T05:03:02;5.30;;;3.33;;
60098;SDS011;62818;49.394;8.686;2022-09-01T05:04:03;4.78;;;3.30;;
60098;SDS011;62818;49.394;8.686;2022-09-01T05:05:09;6.00;;;3.67;;
60098;SDS011;62818;49.394;8.686;2022-09-01T05:06:12;8.05;;;3.67;;
60098;SDS011;62818;49.394;8.686;2022-09-01T05:07:20;5.00;;;3.60;;
60098;SDS011;62818;49.394;8.686;2022-09-01T05:08:28;5.47;;;3.35;;
60098;SDS011;62818;49.394;8.686;2022-09-01T05:09:32;8.55;;;3.05;;
60098;SDS011;62818;49.394;8.686;2022-09-01T05:10:37;6.47;;;3.45;;
60098;SDS011;62818;49.394;8.686;2022-09-01T05:11:43;5.30;;;3.70;;
60098;SDS011;62818;49.394;8.686;2022-09-01T05:12:45;5.32;;;3.47;;
60098;SDS011;62818;49.394;8.686;2022-09-01T05:13:51;7.07;;;3.65;;
60098;SDS011;62818;49.394;8.686;2022-09-01T05:14:56;6.45;;;3.60;;
60098;SDS011;62818;49.394;8.686;2022-09-01T05:16:01;4.63;;;3.80;;
60098;SDS011;62818;49.394;8.686;2022-09-01T05:17:12;5.82;;;4.03;;
60098;SDS011;62818;49.394;8.686;2022-09-01T05:18:14;4.05;;;3.38;;
60098;SDS011;62818;49.394;8.686;2022-09-01T05:19:22;6.70;;;3.75;;
60098;SDS011;62818;49.394;8.686;2022-09-01T05:20:24;5.95;;;3.72;;
60098;SDS011;62818;49.394;8.686;2022-09-01T05:21:29;5.07;;;3.70;;
60098;SDS011;62818;49.394;8.686;2022-09-01T05:22:32;6.80;;;4.57;;
60098;SDS011;62818;49.394;8.686;2022-09-01T05:23:42;7.13;;;3.78;;
60098;SDS011;62818;49.394;8.686;2022-09-01T05:24:44;4.93;;;3.08;;
60098;SDS011;62818;49.394;8.686;2022-09-01T05:25:46;4.18;;;3.65;;
60098;SDS011;62818;49.394;8.686;2022-09-01T05:26:53;4.78;;;3.60;;
60098;SDS011;62818;49.394;8.686;2022-09-01T05:27:57;4.63;;;3.17;;
60098;SDS011;62818;49.394;8.686;2022-09-01T05:28:59;5.17;;;3.73;;
60098;SDS011;62818;49.394;8.686;2022-09-01T05:30:09;4.45;;;3.65;;
60098;SDS011;62818;49.394;8.686;2022-09-01T05:31:15;5.13;;;3.20;;
60098;SDS011;62818;49.394;8.686;2022-09-01T05:32:18;5.20;;;3.63;;
60098;SDS011;62818;49.394;8.686;2022-09-01T05:33:20;4.65;;;3.40;;
60098;SDS011;62818;49.394;8.686;2022-09-01T05:34:22;6.30;;;3.63;;
60098;SDS011;62818;49.394;8.686;2022-09-01T05:35:33;4.57;;;3.40;;
60098;SDS011;62818;49.394;8.686;2022-09-01T05:36:36;5.32;;;3.20;;
60098;SDS011;62818;49.394;8.686;2022-09-01T05:37:41;4.47;;;3.40;;
60098;SDS011;62818;49.394;8.686;2022-09-01T05:38:45;5.18;;;3.55;;
60098;SDS011;62818;49.394;8.686;2022-09-01T05:39:47;5.40;;;3.70;;
60098;SDS011;62818;49.394;8.686;2022-09-01T05:40:58;4.10;;;3.43;;
60098;SDS011;62818;49.394;8.686;2022-09-01T05:42:07;4.13;;;3.65;;
60098;SDS011;62818;49.394;8.686;2022-09-01T05:43:12;6.40;;;3.97;;
60098;SDS011;62818;49.394;8.686;2022-09-01T05:44:14;3.90;;;3.50;;
60098;SDS011;62818;49.394;8.686;2022-09-01T05:45:18;4.35;;;3.38;;
60098;SDS011;62818;49.394;8.686;2022-09-01T05:46:20;4.82;;;3.40;;
60098;SDS011;62818;49.394;8.686;2022-09-01T05:47:27;4.03;;;3.63;;
60098;SDS011;62818;49.394;8.686;2022-09-01T05:48:30;3.45;;;3.15;;
60098;SDS011;62818;49.394;8.686;2022-09-01T05:49:34;4.90;;;3.83;;
60098;SDS011;62818;49.394;8.686;2022-09-01T05:50:39;5.00;;;3.50;;
60098;SDS011;62818;49.394;8.686;2022-09-01T05:51:46;4.97;;;3.38;;
60098;SDS011;62818;49.394;8.686;2022-09-01T05:52:50;9.57;;;4.47;;
60098;SDS011;62818;49.394;8.686;2022-09-01T05:53:56;9.27;;;4.20;;
60098;SDS011;62818;49.394;8.686;2022-09-01T05:54:58;5.43;;;3.63;;
60098;SDS011;62818;49.394;8.686;2022-09-01T05:56:00;8.77;;;4.55;;
60098;SDS011;62818;49.394;8.686;2022-09-01T05:57:06;5.25;;;3.80;;
60098;SDS011;62818;49.394;8.686;2022-09-01T05:58:10;4.77;;;3.90;;
60098;SDS011;62818;49.394;8.686;2022-09-01T05:59:15;5.63;;;3.95;;
60098;SDS011;62818;49.394;8.686;2022-09-01T06:00:16;6.28;;;4.38;;
60098;SDS011;62818;49.394;8.686;2022-09-01T06:01:20;4.30;;;3.33;;
60098;SDS011;62818;49.394;8.686;2022-09-01T06:02:31;4.68;;;4.10;;
60098;SDS011;62818;49.394;8.686;2022-09-01T06:03:32;6.28;;;3.97;;
60098;SDS011;62818;49.394;8.686;2022-09-01T06:04:33;7.53;;;4.00;;
60098;SDS011;62818;49.394;8.686;2022-09-01T06:05:34;4.22;;;3.42;;
60098;SDS011;62818;49.394;8.686;2022-09-01T06:06:38;4.75;;;3.72;;
60098;SDS011;62818;49.394;8.686;2022-09-01T06:07:46;5.10;;;3.58;;
60098;SDS011;62818;49.394;8.686;2022-09-01T06:08:46;4.73;;;3.70;;
60098;SDS011;62818;49.394;8.686;2022-09-01T06:09:47;5.15;;;3.75;;
60098;SDS011;62818;49.394;8.686;2022-09-01T06:10:52;8.52;;;3.60;;
60098;SDS011;62818;49.394;8.686;2022-09-01T06:11:55;6.75;;;4.15;;
60098;SDS011;62818;49.394;8.686;2022-09-01T06:13:02;4.88;;;3.53;;
60098;SDS011;62818;49.394;8.686;2022-09-01T06:14:03;9.65;;;3.65;;
60098;SDS011;62818;49.394;8.686;2022-09-01T06:15:05;5.03;;;3.58;;
60098;SDS011;62818;49.394;8.686;2022-09-01T06:16:14;4.68;;;4.00;;
60098;SDS011;62818;49.394;8.686;2022-09-01T06:17:16;4.85;;;3.95;;
60098;SDS011;62818;49.394;8.686;2022-09-01T06:18:23;5.10;;;3.83;;
60098;SDS011;62818;49.394;8.686;2022-09-01T06:19:28;6.00;;;3.60;;
60098;SDS011;62818;49.394;8.686;2022-09-01T06:20:37;6.10;;;3.75;;
60098;SDS011;62818;49.394;8.686;2022-09-01T06:21:44;4.28;;;3.85;;
60098;SDS011;62818;49.394;8.686;2022-09-01T06:22:45;3.47;;;3.13;;
60098;SDS011;62818;49.394;8.686;2022-09-01T06:23:50;5.63;;;3.20;;
60098;SDS011;62818;49.394;8.686;2022-09-01T06:24:55;3.75;;;3.30;;
60098;SDS011;62818;49.394;8.686;2022-09-01T06:25:58;7.47;;;3.47;;
60098;SDS011;62818;49.394;8.686;2022-09-01T06:27:06;4.95;;;3.22;;
60098;SDS011;62818;49.394;8.686;2022-09-01T06:28:17;5.53;;;3.63;;
60098;SDS011;62818;49.394;8.686;2022-09-01T06:29:20;4.45;;;3.50;;
60098;SDS011;62818;49.394;8.686;2022-09-01T06:30:20;7.03;;;3.87;;
60098;SDS011;62818;49.394;8.686;2022-09-01T06:31:26;5.35;;;3.10;;
60098;SDS011;62818;49.394;8.686;2022-09-01T06:32:32;6.00;;;3.38;;
60098;SDS011;62818;49.394;8.686;2022-09-01T06:33:37;5.45;;;3.30;;
60098;SDS011;62818;49.394;8.686;2022-09-01T06:34:40;6.10;;;3.30;;
60098;SDS011;62818;49.394;8.686;2022-09-01T06:35:45;5.80;;;3.17;;
60098;SDS011;62818;49.394;8.686;2022-09-01T06:36:47;3.53;;;3.08;;
60098;SDS011;62818;49.394;8.686;2022-09-01T06:37:50;3.35;;;3.05;;
60098;SDS011;62818;49.394;8.686;2022-09-01T06:38:55;6.13;;;3.00;;
60098;SDS011;62818;49.394;8.686;2022-09-01T06:39:55;7.90;;;3.27;;
60098;SDS011;62818;49.394;8.686;2022-09-01T06:41:00;7.18;;;3.28;;